sensor_id;sensor_type;location;lat;lon;timestamp;P1;durP1;ratioP1;P2;durP2;ratioP2
50231;SDS011;36118;56.468;84.952;2023-06-10T00:02:39;4.72;;;1.98;;
50231;SDS011;36118;56.468;84.952;2023-06-10T00:07:44;3.50;;;2.10;;
50231;SDS011;36118;56.468;84.952;2023-06-10T00:12:49;4.47;;;2.45;;
50231;SDS011;36118;56.468;84.952;2023-06-10T00:17:52;6.70;;;2.53;;
50231;SDS011;36118;56.468;84.952;2023-06-10T00:22:57;3.78;;;2.10;;
50231;SDS011;36118;56.468;84.952;2023-06-10T00:28:01;4.05;;;2.25;;
50231;SDS011;36118;56.468;84.952;2023-06-10T00:33:05;3.75;;;2.22;;
50231;SDS011;36118;56.468;84.952;2023-06-10T00:38:09;3.80;;;2.00;;
50231;SDS011;36118;56.468;84.952;2023-06-10T00:43:12;2.70;;;1.75;;
50231;SDS011;36118;56.468;84.952;2023-06-10T00:48:15;4.03;;;2.00;;
50231;SDS011;36118;56.468;84.952;2023-06-10T00:53:19;3.75;;;1.90;;
50231;SDS011;36118;56.468;84.952;2023-06-10T00:58:24;2.80;;;1.60;;
50231;SDS011;36118;56.468;84.952;2023-06-10T01:03:28;4.13;;;1.80;;
50231;SDS011;36118;56.468;84.952;2023-06-10T01:08:35;4.80;;;1.90;;
50231;SDS011;36118;56.468;84.952;2023-06-10T01:19:01;4.55;;;1.90;;
50231;SDS011;36118;56.468;84.952;2023-06-10T01:24:04;4.95;;;1.90;;
50231;SDS011;36118;56.468;84.952;2023-06-10T01:29:17;4.97;;;2.47;;
50231;SDS011;36118;56.468;84.952;2023-06-10T01:34:23;3.92;;;2.20;;
50231;SDS011;36118;56.468;84.952;2023-06-10T01:39:26;6.28;;;2.45;;
50231;SDS011;36118;56.468;84.952;2023-06-10T01:44:30;4.43;;;2.35;;
50231;SDS011;36118;56.468;84.952;2023-06-10T01:49:35;8.10;;;3.00;;
50231;SDS011;36118;56.468;84.952;2023-06-10T01:54:38;6.22;;;3.60;;
50231;SDS011;36118;56.468;84.952;2023-06-10T01:59:41;6.18;;;3.30;;
50231;SDS011;36118;56.468;84.952;2023-06-10T02:04:47;5.20;;;2.28;;
50231;SDS011;36118;56.468;84.952;2023-06-10T02:09:50;4.22;;;2.38;;
50231;SDS011;36118;56.468;84.952;2023-06-10T02:14:54;8.85;;;2.88;;
50231;SDS011;36118;56.468;84.952;2023-06-10T02:19:58;9.67;;;3.40;;
50231;SDS011;36118;56.468;84.952;2023-06-10T02:30:06;6.68;;;3.65;;
50231;SDS011;36118;56.468;84.952;2023-06-10T02:35:16;6.70;;;4.00;;
50231;SDS011;36118;56.468;84.952;2023-06-10T02:40:22;6.60;;;3.90;;
50231;SDS011;36118;56.468;84.952;2023-06-10T02:45:25;11.13;;;5.00;;
50231;SDS011;36118;56.468;84.952;2023-06-10T02:50:31;8.67;;;4.57;;
50231;SDS011;36118;56.468;84.952;2023-06-10T02:55:44;7.45;;;4.15;;
50231;SDS011;36118;56.468;84.952;2023-06-10T03:00:51;9.45;;;4.80;;
50231;SDS011;36118;56.468;84.952;2023-06-10T03:05:55;8.93;;;4.60;;
50231;SDS011;36118;56.468;84.952;2023-06-10T03:11:00;8.15;;;4.97;;
50231;SDS011;36118;56.468;84.952;2023-06-10T03:16:04;8.43;;;3.83;;
50231;SDS011;36118;56.468;84.952;2023-06-10T03:21:11;9.70;;;4.30;;
50231;SDS011;36118;56.468;84.952;2023-06-10T03:26:17;7.93;;;4.20;;
50231;SDS011;36118;56.468;84.952;2023-06-10T03:31:25;6.68;;;3.97;;
50231;SDS011;36118;56.468;84.952;2023-06-10T03:36:30;6.95;;;3.30;;
50231;SDS011;36118;56.468;84.952;2023-06-10T03:41:33;5.47;;;2.95;;
50231;SDS011;36118;56.468;84.952;2023-06-10T03:46:36;7.22;;;3.17;;
50231;SDS011;36118;56.468;84.952;2023-06-10T03:51:40;8.27;;;3.13;;
50231;SDS011;36118;56.468;84.952;2023-06-10T03:56:44;5.82;;;3.03;;
50231;SDS011;36118;56.468;84.952;2023-06-10T04:01:48;5.38;;;3.10;;
50231;SDS011;36118;56.468;84.952;2023-06-10T04:06:51;4.38;;;3.20;;
50231;SDS011;36118;56.468;84.952;2023-06-10T04:11:57;5.65;;;3.22;;
50231;SDS011;36118;56.468;84.952;2023-06-10T04:17:00;6.55;;;3.20;;
50231;SDS011;36118;56.468;84.952;2023-06-10T04:22:04;6.72;;;3.22;;
50231;SDS011;36118;56.468;84.952;2023-06-10T04:27:07;4.57;;;2.40;;
50231;SDS011;36118;56.468;84.952;2023-06-10T04:32:11;7.03;;;2.95;;
50231;SDS011;36118;56.468;84.952;2023-06-10T04:37:14;6.07;;;3.22;;
50231;SDS011;36118;56.468;84.952;2023-06-10T04:42:17;5.75;;;2.78;;
50231;SDS011;36118;56.468;84.952;2023-06-10T04:47:20;6.53;;;2.50;;
50231;SDS011;36118;56.468;84.952;2023-06-10T04:52:24;6.32;;;2.83;;
50231;SDS011;36118;56.468;84.952;2023-06-10T04:57:27;3.63;;;2.42;;
50231;SDS011;36118;56.468;84.952;2023-06-10T05:02:30;4.68;;;2.25;;
50231;SDS011;36118;56.468;84.952;2023-06-10T05:07:33;5.72;;;2.80;;
50231;SDS011;36118;56.468;84.952;2023-06-10T05:12:38;5.65;;;2.75;;
50231;SDS011;36118;56.468;84.952;2023-06-10T05:17:41;3.85;;;2.80;;
50231;SDS011;36118;56.468;84.952;2023-06-10T05:22:44;6.20;;;3.00;;
50231;SDS011;36118;56.468;84.952;2023-06-10T05:27:48;6.55;;;3.17;;
50231;SDS011;36118;56.468;84.952;2023-06-10T05:32:51;8.38;;;3.28;;
50231;SDS011;36118;56.468;84.952;2023-06-10T05:37:55;6.20;;;3.42;;
50231;SDS011;36118;56.468;84.952;2023-06-10T05:42:58;5.63;;;3.45;;
50231;SDS011;36118;56.468;84.952;2023-06-10T05:48:02;6.38;;;3.83;;
50231;SDS011;36118;56.468;84.952;2023-06-10T05:53:06;5.70;;;3.80;;
50231;SDS011;36118;56.468;84.952;2023-06-10T05:58:10;7.78;;;4.45;;
50231;SDS011;36118;56.468;84.952;2023-06-10T06:03:17;9.10;;;5.00;;
50231;SDS011;36118;56.468;84.952;2023-06-10T06:08:20;6.70;;;5.18;;
50231;SDS011;36118;56.468;84.952;2023-06-10T06:13:23;9.02;;;5.35;;
50231;SDS011;36118;56.468;84.952;2023-06-10T06:18:26;9.10;;;5.90;;
50231;SDS011;36118;56.468;84.952;2023-06-10T06:23:30;9.63;;;6.30;;
50231;SDS011;36118;56.468;84.952;2023-06-10T06:28:33;7.75;;;5.78;;
50231;SDS011;36118;56.468;84.952;2023-06-10T06:33:36;9.13;;;6.80;;
50231;SDS011;36118;56.468;84.952;2023-06-10T06:38:39;9.00;;;6.68;;
50231;SDS011;36118;56.468;84.952;2023-06-10T06:43:43;11.50;;;6.82;;
50231;SDS011;36118;56.468;84.952;2023-06-10T06:48:58;14.15;;;6.95;;
50231;SDS011;36118;56.468;84.952;2023-06-10T06:54:02;8.90;;;6.82;;
50231;SDS011;36118;56.468;84.952;2023-06-10T06:59:05;9.57;;;7.32;;
50231;SDS011;36118;56.468;84.952;2023-06-10T07:04:08;10.25;;;7.65;;
50231;SDS011;36118;56.468;84.952;2023-06-10T07:09:11;10.75;;;7.00;;
50231;SDS011;36118;56.468;84.952;2023-06-10T07:14:14;9.80;;;7.35;;
50231;SDS011;36118;56.468;84.952;2023-06-10T07:19:17;11.52;;;8.25;;
50231;SDS011;36118;56.468;84.952;2023-06-10T07:24:20;11.55;;;9.45;;
50231;SDS011;36118;56.468;84.952;2023-06-10T07:29:23;11.77;;;9.85;;
50231;SDS011;36118;56.468;84.952;2023-06-10T07:34:26;15.07;;;10.50;;
50231;SDS011;36118;56.468;84.952;2023-06-10T07:39:29;15.65;;;11.88;;
50231;SDS011;36118;56.468;84.952;2023-06-10T07:44:32;15.75;;;11.52;;
50231;SDS011;36118;56.468;84.952;2023-06-10T07:49:35;15.82;;;11.52;;
50231;SDS011;36118;56.468;84.952;2023-06-10T07:54:38;16.05;;;11.77;;
50231;SDS011;36118;56.468;84.952;2023-06-10T07:59:41;15.95;;;11.15;;
50231;SDS011;36118;56.468;84.952;2023-06-10T08:04:46;14.53;;;12.07;;
50231;SDS011;36118;56.468;84.952;2023-06-10T08:09:49;15.57;;;11.32;;
50231;SDS011;36118;56.468;84.952;2023-06-10T08:14:52;16.10;;;11.57;;
50231;SDS011;36118;56.468;84.952;2023-06-10T08:19:56;14.00;;;11.98;;
50231;SDS011;36118;56.468;84.952;2023-06-10T08:25:00;15.68;;;10.70;;
50231;SDS011;36118;56.468;84.952;2023-06-10T08:30:05;14.93;;;10.73;;
50231;SDS011;36118;56.468;84.952;2023-06-10T08:35:09;15.93;;;11.13;;
50231;SDS011;36118;56.468;84.952;2023-06-10T08:40:13;11.55;;;9.90;;
50231;SDS011;36118;56.468;84.952;2023-06-10T08:45:17;13.02;;;11.50;;
50231;SDS011;36118;56.468;84.952;2023-06-10T08:50:21;12.55;;;10.57;;
50231;SDS011;36118;56.468;84.952;2023-06-10T08:55:37;19.20;;;11.65;;
50231;SDS011;36118;56.468;84.952;2023-06-10T09:00:41;13.38;;;11.05;;
50231;SDS011;36118;56.468;84.952;2023-06-10T09:05:45;12.52;;;11.23;;
50231;SDS011;36118;56.468;84.952;2023-06-10T09:10:48;12.35;;;10.38;;
50231;SDS011;36118;56.468;84.952;2023-06-10T09:15:51;12.05;;;10.75;;
50231;SDS011;36118;56.468;84.952;2023-06-10T09:20:54;13.40;;;11.45;;
50231;SDS011;36118;56.468;84.952;2023-06-10T09:25:57;15.60;;;11.80;;
50231;SDS011;36118;56.468;84.952;2023-06-10T09:31:04;14.60;;;10.63;;
50231;SDS011;36118;56.468;84.952;2023-06-10T09:36:08;12.18;;;9.98;;
50231;SDS011;36118;56.468;84.952;2023-06-10T09:41:11;13.30;;;10.60;;
50231;SDS011;36118;56.468;84.952;2023-06-10T09:46:17;15.52;;;11.27;;
50231;SDS011;36118;56.468;84.952;2023-06-10T09:51:21;15.13;;;11.82;;
50231;SDS011;36118;56.468;84.952;2023-06-10T09:56:37;12.43;;;10.25;;
50231;SDS011;36118;56.468;84.952;2023-06-10T10:01:43;13.63;;;10.50;;
50231;SDS011;36118;56.468;84.952;2023-06-10T10:06:46;13.77;;;11.70;;
50231;SDS011;36118;56.468;84.952;2023-06-10T10:11:49;15.30;;;11.93;;
50231;SDS011;36118;56.468;84.952;2023-06-10T10:16:53;12.65;;;10.35;;
50231;SDS011;36118;56.468;84.952;2023-06-10T10:22:01;12.55;;;10.80;;
50231;SDS011;36118;56.468;84.952;2023-06-10T10:27:17;15.02;;;10.93;;
50231;SDS011;36118;56.468;84.952;2023-06-10T10:32:23;16.58;;;11.70;;
50231;SDS011;36118;56.468;84.952;2023-06-10T10:37:48;14.38;;;12.30;;
50231;SDS011;36118;56.468;84.952;2023-06-10T10:42:54;15.60;;;12.82;;
50231;SDS011;36118;56.468;84.952;2023-06-10T10:47:57;16.83;;;12.15;;
50231;SDS011;36118;56.468;84.952;2023-06-10T10:53:01;14.57;;;11.50;;
50231;SDS011;36118;56.468;84.952;2023-06-10T10:58:06;12.20;;;9.80;;
50231;SDS011;36118;56.468;84.952;2023-06-10T11:03:13;13.45;;;11.57;;
50231;SDS011;36118;56.468;84.952;2023-06-10T11:13:35;12.40;;;11.00;;
50231;SDS011;36118;56.468;84.952;2023-06-10T11:18:41;13.63;;;11.55;;
50231;SDS011;36118;56.468;84.952;2023-06-10T11:23:44;13.18;;;10.93;;
50231;SDS011;36118;56.468;84.952;2023-06-10T11:33:57;17.23;;;12.93;;
50231;SDS011;36118;56.468;84.952;2023-06-10T11:39:06;16.65;;;12.30;;
50231;SDS011;36118;56.468;84.952;2023-06-10T11:44:10;14.85;;;11.95;;
50231;SDS011;36118;56.468;84.952;2023-06-10T11:49:20;14.35;;;11.65;;
50231;SDS011;36118;56.468;84.952;2023-06-10T11:54:23;12.50;;;10.77;;
50231;SDS011;36118;56.468;84.952;2023-06-10T11:59:29;13.38;;;11.57;;
50231;SDS011;36118;56.468;84.952;2023-06-10T12:04:32;12.10;;;10.82;;
50231;SDS011;36118;56.468;84.952;2023-06-10T12:09:35;14.10;;;11.13;;
50231;SDS011;36118;56.468;84.952;2023-06-10T12:14:54;13.32;;;11.50;;
50231;SDS011;36118;56.468;84.952;2023-06-10T12:20:01;14.82;;;11.88;;
50231;SDS011;36118;56.468;84.952;2023-06-10T12:30:10;12.85;;;11.45;;
50231;SDS011;36118;56.468;84.952;2023-06-10T12:35:16;13.02;;;10.95;;
50231;SDS011;36118;56.468;84.952;2023-06-10T12:40:25;11.95;;;10.68;;
50231;SDS011;36118;56.468;84.952;2023-06-10T12:45:36;11.60;;;9.40;;
50231;SDS011;36118;56.468;84.952;2023-06-10T12:50:42;10.68;;;9.02;;
50231;SDS011;36118;56.468;84.952;2023-06-10T12:55:46;10.52;;;8.77;;
50231;SDS011;36118;56.468;84.952;2023-06-10T13:00:49;12.07;;;9.30;;
50231;SDS011;36118;56.468;84.952;2023-06-10T13:05:55;10.30;;;9.30;;
50231;SDS011;36118;56.468;84.952;2023-06-10T13:10:59;11.48;;;9.18;;
50231;SDS011;36118;56.468;84.952;2023-06-10T13:16:03;10.15;;;8.57;;
50231;SDS011;36118;56.468;84.952;2023-06-10T13:21:06;13.07;;;9.85;;
50231;SDS011;36118;56.468;84.952;2023-06-10T13:26:09;11.52;;;9.15;;
50231;SDS011;36118;56.468;84.952;2023-06-10T13:31:12;9.98;;;9.00;;
50231;SDS011;36118;56.468;84.952;2023-06-10T13:36:15;12.95;;;9.65;;
50231;SDS011;36118;56.468;84.952;2023-06-10T13:41:18;10.35;;;9.25;;
50231;SDS011;36118;56.468;84.952;2023-06-10T13:46:21;13.95;;;10.27;;
50231;SDS011;36118;56.468;84.952;2023-06-10T13:51:25;14.60;;;11.05;;
50231;SDS011;36118;56.468;84.952;2023-06-10T13:56:28;19.92;;;14.48;;
50231;SDS011;36118;56.468;84.952;2023-06-10T14:01:31;26.00;;;20.25;;
50231;SDS011;36118;56.468;84.952;2023-06-10T14:06:35;25.02;;;17.48;;
50231;SDS011;36118;56.468;84.952;2023-06-10T14:11:38;24.38;;;18.48;;
50231;SDS011;36118;56.468;84.952;2023-06-10T14:16:41;27.13;;;19.13;;
50231;SDS011;36118;56.468;84.952;2023-06-10T14:21:44;26.45;;;19.45;;
50231;SDS011;36118;56.468;84.952;2023-06-10T14:26:49;25.87;;;18.53;;
50231;SDS011;36118;56.468;84.952;2023-06-10T14:31:52;26.42;;;19.20;;
50231;SDS011;36118;56.468;84.952;2023-06-10T14:36:56;25.23;;;18.48;;
50231;SDS011;36118;56.468;84.952;2023-06-10T14:41:59;27.33;;;19.73;;
50231;SDS011;36118;56.468;84.952;2023-06-10T14:47:02;23.05;;;17.27;;
50231;SDS011;36118;56.468;84.952;2023-06-10T14:52:05;31.85;;;20.77;;
50231;SDS011;36118;56.468;84.952;2023-06-10T14:57:08;28.23;;;18.58;;
50231;SDS011;36118;56.468;84.952;2023-06-10T15:02:12;28.63;;;20.05;;
50231;SDS011;36118;56.468;84.952;2023-06-10T15:07:16;25.05;;;19.02;;
50231;SDS011;36118;56.468;84.952;2023-06-10T15:12:20;28.13;;;19.15;;
50231;SDS011;36118;56.468;84.952;2023-06-10T15:17:23;26.05;;;19.77;;
50231;SDS011;36118;56.468;84.952;2023-06-10T15:22:26;25.52;;;20.90;;
50231;SDS011;36118;56.468;84.952;2023-06-10T15:27:29;27.98;;;21.48;;
50231;SDS011;36118;56.468;84.952;2023-06-10T15:32:32;28.25;;;21.63;;
50231;SDS011;36118;56.468;84.952;2023-06-10T15:37:35;27.48;;;22.88;;
50231;SDS011;36118;56.468;84.952;2023-06-10T15:42:38;26.33;;;20.83;;
50231;SDS011;36118;56.468;84.952;2023-06-10T15:47:42;26.92;;;19.73;;
50231;SDS011;36118;56.468;84.952;2023-06-10T15:52:45;25.33;;;19.20;;
50231;SDS011;36118;56.468;84.952;2023-06-10T15:57:48;24.83;;;18.65;;
50231;SDS011;36118;56.468;84.952;2023-06-10T16:02:51;25.77;;;19.40;;
50231;SDS011;36118;56.468;84.952;2023-06-10T16:07:54;27.05;;;21.58;;
50231;SDS011;36118;56.468;84.952;2023-06-10T16:12:59;30.80;;;21.02;;
50231;SDS011;36118;56.468;84.952;2023-06-10T16:18:02;29.67;;;20.92;;
50231;SDS011;36118;56.468;84.952;2023-06-10T16:23:05;24.90;;;19.75;;
50231;SDS011;36118;56.468;84.952;2023-06-10T16:28:08;25.98;;;21.48;;
50231;SDS011;36118;56.468;84.952;2023-06-10T16:33:11;27.88;;;21.75;;
50231;SDS011;36118;56.468;84.952;2023-06-10T16:38:15;27.80;;;21.92;;
50231;SDS011;36118;56.468;84.952;2023-06-10T16:43:18;26.58;;;19.92;;
50231;SDS011;36118;56.468;84.952;2023-06-10T16:48:21;33.05;;;22.63;;
50231;SDS011;36118;56.468;84.952;2023-06-10T16:53:24;31.80;;;23.63;;
50231;SDS011;36118;56.468;84.952;2023-06-10T16:58:27;29.63;;;21.40;;
50231;SDS011;36118;56.468;84.952;2023-06-10T17:03:30;29.45;;;20.15;;
50231;SDS011;36118;56.468;84.952;2023-06-10T17:08:33;25.05;;;19.23;;
50231;SDS011;36118;56.468;84.952;2023-06-10T17:13:36;25.98;;;19.70;;
50231;SDS011;36118;56.468;84.952;2023-06-10T17:18:43;26.58;;;19.70;;
50231;SDS011;36118;56.468;84.952;2023-06-10T17:23:46;25.98;;;17.70;;
50231;SDS011;36118;56.468;84.952;2023-06-10T17:28:48;23.35;;;18.05;;
50231;SDS011;36118;56.468;84.952;2023-06-10T17:33:51;24.75;;;18.52;;
50231;SDS011;36118;56.468;84.952;2023-06-10T17:38:55;26.23;;;19.92;;
50231;SDS011;36118;56.468;84.952;2023-06-10T17:43:58;23.63;;;18.70;;
50231;SDS011;36118;56.468;84.952;2023-06-10T17:49:01;23.33;;;18.23;;
50231;SDS011;36118;56.468;84.952;2023-06-10T17:54:04;24.98;;;20.23;;
50231;SDS011;36118;56.468;84.952;2023-06-10T17:59:09;30.03;;;21.23;;
50231;SDS011;36118;56.468;84.952;2023-06-10T18:04:13;24.40;;;19.40;;
50231;SDS011;36118;56.468;84.952;2023-06-10T18:09:16;22.25;;;17.67;;
50231;SDS011;36118;56.468;84.952;2023-06-10T18:14:19;23.88;;;17.77;;
50231;SDS011;36118;56.468;84.952;2023-06-10T18:19:24;26.42;;;18.80;;
50231;SDS011;36118;56.468;84.952;2023-06-10T18:24:27;26.25;;;19.90;;
50231;SDS011;36118;56.468;84.952;2023-06-10T18:29:30;26.13;;;20.23;;
50231;SDS011;36118;56.468;84.952;2023-06-10T18:34:33;29.73;;;21.38;;
50231;SDS011;36118;56.468;84.952;2023-06-10T18:39:38;27.30;;;20.27;;
50231;SDS011;36118;56.468;84.952;2023-06-10T18:44:41;27.95;;;20.15;;
50231;SDS011;36118;56.468;84.952;2023-06-10T18:49:44;26.13;;;20.27;;
50231;SDS011;36118;56.468;84.952;2023-06-10T18:54:48;25.20;;;19.50;;
50231;SDS011;36118;56.468;84.952;2023-06-10T18:59:51;28.20;;;19.65;;
50231;SDS011;36118;56.468;84.952;2023-06-10T19:04:54;27.92;;;20.02;;
50231;SDS011;36118;56.468;84.952;2023-06-10T19:09:56;31.50;;;21.27;;
50231;SDS011;36118;56.468;84.952;2023-06-10T19:15:00;31.63;;;22.05;;
50231;SDS011;36118;56.468;84.952;2023-06-10T19:20:07;30.45;;;23.20;;
50231;SDS011;36118;56.468;84.952;2023-06-10T19:25:11;30.83;;;21.33;;
50231;SDS011;36118;56.468;84.952;2023-06-10T19:30:15;28.95;;;20.98;;
50231;SDS011;36118;56.468;84.952;2023-06-10T19:35:19;32.10;;;21.88;;
50231;SDS011;36118;56.468;84.952;2023-06-10T19:40:22;28.83;;;22.27;;
50231;SDS011;36118;56.468;84.952;2023-06-10T19:45:25;34.63;;;22.83;;
50231;SDS011;36118;56.468;84.952;2023-06-10T19:50:28;32.58;;;24.35;;
50231;SDS011;36118;56.468;84.952;2023-06-10T19:55:31;34.42;;;25.05;;
50231;SDS011;36118;56.468;84.952;2023-06-10T20:00:38;41.65;;;24.27;;
50231;SDS011;36118;56.468;84.952;2023-06-10T20:05:41;30.90;;;22.20;;
50231;SDS011;36118;56.468;84.952;2023-06-10T20:10:44;31.25;;;22.30;;
50231;SDS011;36118;56.468;84.952;2023-06-10T20:15:47;33.97;;;22.52;;
50231;SDS011;36118;56.468;84.952;2023-06-10T20:20:51;33.83;;;23.10;;
50231;SDS011;36118;56.468;84.952;2023-06-10T20:25:54;37.15;;;25.25;;
50231;SDS011;36118;56.468;84.952;2023-06-10T20:31:00;34.00;;;23.95;;
50231;SDS011;36118;56.468;84.952;2023-06-10T20:36:03;37.15;;;24.65;;
50231;SDS011;36118;56.468;84.952;2023-06-10T20:41:06;37.13;;;24.98;;
50231;SDS011;36118;56.468;84.952;2023-06-10T20:46:09;36.03;;;23.92;;
50231;SDS011;36118;56.468;84.952;2023-06-10T20:51:13;38.15;;;24.40;;
50231;SDS011;36118;56.468;84.952;2023-06-10T20:56:15;30.65;;;22.23;;
50231;SDS011;36118;56.468;84.952;2023-06-10T21:01:19;33.50;;;21.23;;
50231;SDS011;36118;56.468;84.952;2023-06-10T21:06:23;38.80;;;23.15;;
50231;SDS011;36118;56.468;84.952;2023-06-10T21:11:27;38.15;;;23.95;;
50231;SDS011;36118;56.468;84.952;2023-06-10T21:16:29;32.45;;;22.27;;
50231;SDS011;36118;56.468;84.952;2023-06-10T21:21:33;42.53;;;23.52;;
50231;SDS011;36118;56.468;84.952;2023-06-10T21:26:36;38.20;;;23.50;;
50231;SDS011;36118;56.468;84.952;2023-06-10T21:31:39;37.08;;;23.92;;
50231;SDS011;36118;56.468;84.952;2023-06-10T21:36:43;35.45;;;23.75;;
50231;SDS011;36118;56.468;84.952;2023-06-10T21:41:46;39.55;;;24.20;;
50231;SDS011;36118;56.468;84.952;2023-06-10T21:46:49;40.35;;;23.42;;
50231;SDS011;36118;56.468;84.952;2023-06-10T21:51:53;38.03;;;24.38;;
50231;SDS011;36118;56.468;84.952;2023-06-10T21:56:56;37.42;;;23.88;;
50231;SDS011;36118;56.468;84.952;2023-06-10T22:01:59;36.17;;;22.92;;
50231;SDS011;36118;56.468;84.952;2023-06-10T22:07:02;42.35;;;22.85;;
50231;SDS011;36118;56.468;84.952;2023-06-10T22:12:06;31.83;;;20.95;;
50231;SDS011;36118;56.468;84.952;2023-06-10T22:17:10;33.05;;;23.65;;
50231;SDS011;36118;56.468;84.952;2023-06-10T22:22:14;95.33;;;23.70;;
50231;SDS011;36118;56.468;84.952;2023-06-10T22:27:17;31.98;;;21.95;;
50231;SDS011;36118;56.468;84.952;2023-06-10T22:32:20;24.63;;;19.13;;
50231;SDS011;36118;56.468;84.952;2023-06-10T22:37:23;23.55;;;16.65;;
50231;SDS011;36118;56.468;84.952;2023-06-10T22:42:27;22.27;;;17.63;;
50231;SDS011;36118;56.468;84.952;2023-06-10T22:47:29;24.00;;;18.40;;
50231;SDS011;36118;56.468;84.952;2023-06-10T22:52:33;22.83;;;16.33;;
50231;SDS011;36118;56.468;84.952;2023-06-10T22:57:36;21.13;;;15.88;;
50231;SDS011;36118;56.468;84.952;2023-06-10T23:02:39;19.23;;;14.63;;
50231;SDS011;36118;56.468;84.952;2023-06-10T23:07:43;19.85;;;14.13;;
50231;SDS011;36118;56.468;84.952;2023-06-10T23:12:46;21.13;;;14.38;;
50231;SDS011;36118;56.468;84.952;2023-06-10T23:17:49;19.15;;;14.80;;
50231;SDS011;36118;56.468;84.952;2023-06-10T23:22:52;18.48;;;14.23;;
50231;SDS011;36118;56.468;84.952;2023-06-10T23:27:55;24.75;;;15.43;;
50231;SDS011;36118;56.468;84.952;2023-06-10T23:32:58;22.30;;;13.85;;
50231;SDS011;36118;56.468;84.952;2023-06-10T23:38:02;20.52;;;13.32;;
50231;SDS011;36118;56.468;84.952;2023-06-10T23:43:06;21.52;;;14.20;;
50231;SDS011;36118;56.468;84.952;2023-06-10T23:48:08;22.63;;;13.98;;
50231;SDS011;36118;56.468;84.952;2023-06-10T23:53:12;23.85;;;13.13;;
50231;SDS011;36118;56.468;84.952;2023-06-10T23:58:15;17.30;;;12.30;;
